Time;durP1;ratioP1;P1;durP2;ratioP2;P2;SDS_P1;SDS_P2;PMS_P1;PMS_P2;Temp;Humidity;BMP_temperature;BMP_pressure;BME280_temperature;BME280_humidity;BME280_pressure;Samples;Min_cycle;Max_cycle;Signal;HPM_P1;HPM_P2
2023/05/28 00:00:00;;;;;;;4.97;4.20;;;;;;;19.79;100.00;101373.56;2076454;28;20603;-62
2023/05/28 00:01:03;;;;;;;4.97;4.47;;;;;;;19.66;100.00;101376.59;2075089;28;20601;-62
2023/05/28 00:02:03;;;;;;;5.77;4.67;;;;;;;19.53;100.00;101376.03;2077882;28;20190;-63
2023/05/28 00:03:04;;;;;;;5.20;4.47;;;;;;;19.54;100.00;101385.28;2072746;28;20413;-63
2023/05/28 00:04:04;;;;;;;6.53;4.80;;;;;;;19.53;100.00;101389.31;2072581;28;20188;-63
2023/05/28 00:05:05;;;;;;;7.13;4.67;;;;;;;18.72;100.00;101258.34;2080649;28;20189;-62
2023/05/28 00:06:06;;;;;;;5.27;4.50;;;;;;;19.62;100.00;101387.25;2088166;28;20202;-63
2023/05/28 00:07:06;;;;;;;7.30;4.50;;;;;;;19.24;100.00;101330.13;2083217;28;20462;-62
2023/05/28 00:08:07;;;;;;;5.93;4.73;;;;;;;19.71;100.00;101390.00;2072626;28;20190;-62
2023/05/28 00:09:09;;;;;;;6.03;4.30;;;;;;;19.76;100.00;101392.16;2075660;28;20195;-62
2023/05/28 00:10:10;;;;;;;6.80;4.40;;;;;;;19.76;100.00;101392.16;2080091;28;20187;-62
2023/05/28 00:11:10;;;;;;;4.67;4.10;;;;;;;19.79;100.00;101396.84;2080980;28;20420;-62
2023/05/28 00:12:12;;;;;;;5.43;4.17;;;;;;;19.82;100.00;101397.91;2081254;28;20184;-61
2023/05/28 00:13:12;;;;;;;5.63;4.80;;;;;;;19.82;100.00;101395.09;2072656;28;20200;-63
2023/05/28 00:14:13;;;;;;;6.17;4.60;;;;;;;19.24;100.00;101316.06;2074749;28;20425;-62
2023/05/28 00:15:13;;;;;;;6.90;4.27;;;;;;;19.86;100.00;101406.97;2082750;28;20188;-61
2023/05/28 00:16:14;;;;;;;6.70;4.37;;;;;;;19.90;100.00;101402.72;2080669;28;20189;-62
2023/05/28 00:17:15;;;;;;;6.10;4.20;;;;;;;19.92;100.00;101399.44;2080544;28;20201;-62
2023/05/28 00:18:16;;;;;;;6.37;4.57;;;;;;;19.92;100.00;101396.63;2078134;28;20185;-63
2023/05/28 00:19:16;;;;;;;4.97;4.20;;;;;;;19.95;100.00;101390.81;2073390;28;20563;-62
2023/05/28 00:20:17;;;;;;;6.07;4.57;;;;;;;19.97;100.00;101396.75;2080590;28;20231;-62
2023/05/28 00:21:17;;;;;;;5.00;3.90;;;;;;;19.98;100.00;101398.31;2072752;28;20193;-62
2023/05/28 00:22:17;;;;;;;5.93;3.97;;;;;;;19.65;100.00;101348.97;2079728;28;20232;-62
2023/05/28 00:23:18;;;;;;;5.43;4.33;;;;;;;20.01;100.00;101405.00;2074867;28;20234;-62
2023/05/28 00:24:19;;;;;;;6.60;3.87;;;;;;;20.01;100.00;101402.19;2072626;28;20652;-62
2023/05/28 00:25:19;;;;;;;7.80;4.20;;;;;;;20.01;100.00;101397.31;2075753;28;20178;-62
2023/05/28 00:26:19;;;;;;;6.87;3.90;;;;;;;19.98;100.00;101400.31;2080759;28;20184;-63
2023/05/28 00:27:20;;;;;;;5.73;4.40;;;;;;;19.95;100.00;101399.25;2080606;28;20180;-63
2023/05/28 00:28:20;;;;;;;5.80;4.10;;;;;;;19.84;100.00;101375.72;2080531;28;20238;-61
2023/05/28 00:29:21;;;;;;;4.97;3.60;;;;;;;19.95;100.00;101392.84;2080853;28;20177;-62
2023/05/28 00:30:23;;;;;;;5.70;3.80;;;;;;;19.93;100.00;101393.34;2080077;28;20185;-62
2023/05/28 00:31:23;;;;;;;4.87;3.63;;;;;;;19.93;100.00;101392.53;2073768;28;20194;-61
2023/05/28 00:32:24;;;;;;;5.07;3.87;;;;;;;19.96;100.00;101386.72;2077707;28;20470;-63
2023/05/28 00:33:25;;;;;;;4.10;3.70;;;;;;;19.91;100.00;101378.94;2080588;28;20196;-62
2023/05/28 00:34:26;;;;;;;6.13;4.00;;;;;;;19.97;100.00;101388.31;2080499;28;20276;-61
2023/05/28 00:35:26;;;;;;;5.10;3.80;;;;;;;19.95;100.00;101378.78;2079779;28;20407;-62
2023/05/28 00:36:27;;;;;;;5.57;3.97;;;;;;;20.01;100.00;101382.50;2074422;28;20181;-62
2023/05/28 00:37:27;;;;;;;9.57;3.83;;;;;;;20.02;100.00;101382.03;2074271;28;20686;-62
2023/05/28 00:38:28;;;;;;;7.30;3.87;;;;;;;20.03;100.00;101380.75;2074485;28;20235;-63
2023/05/28 00:39:28;;;;;;;5.97;3.50;;;;;;;20.04;100.00;101375.91;2079441;28;20547;-62
2023/05/28 00:40:28;;;;;;;5.63;3.60;;;;;;;20.05;100.00;101375.41;2081923;28;20235;-62
2023/05/28 00:41:30;;;;;;;5.30;3.73;;;;;;;20.00;100.00;101380.94;2079271;28;20241;-62
2023/05/28 00:42:31;;;;;;;4.40;3.63;;;;;;;19.98;100.00;101386.25;2074769;28;20728;-62
2023/05/28 00:43:35;;;;;;;6.93;4.00;;;;;;;19.97;100.00;101385.50;2073930;28;20467;-62
2023/05/28 00:44:35;;;;;;;4.97;3.90;;;;;;;19.97;100.00;101377.06;2074059;28;20178;-62
2023/05/28 00:45:36;;;;;;;4.20;3.80;;;;;;;19.97;100.00;101385.50;2082036;28;20542;-62
2023/05/28 00:46:39;;;;;;;4.37;3.87;;;;;;;19.97;100.00;101379.88;2082315;28;20275;-62
2023/05/28 00:47:41;;;;;;;4.10;3.70;;;;;;;19.94;100.00;101378.00;2082342;28;20651;-62
2023/05/28 00:48:41;;;;;;;5.37;3.77;;;;;;;19.93;100.00;101378.47;2089761;28;20462;-62
2023/05/28 00:49:42;;;;;;;4.80;3.57;;;;;;;19.41;100.00;101303.97;2086469;28;20216;-62
2023/05/28 00:50:43;;;;;;;5.43;3.87;;;;;;;19.95;100.00;101384.41;2073840;28;20669;-62
2023/05/28 00:51:44;;;;;;;4.20;3.80;;;;;;;19.95;100.00;101373.94;2075004;28;20181;-62
2023/05/28 00:52:47;;;;;;;4.53;3.83;;;;;;;19.77;100.00;101348.75;2082063;28;20407;-63
2023/05/28 00:53:47;;;;;;;6.20;4.07;;;;;;;19.91;100.00;101376.13;2082197;28;20184;-62
2023/05/28 00:54:50;;;;;;;5.97;4.33;;;;;;;19.83;100.00;101379.78;2081945;28;20964;-62
2023/05/28 00:55:52;;;;;;;7.30;3.73;;;;;;;19.84;100.00;101381.34;2075498;28;20265;-63
2023/05/28 00:56:53;;;;;;;6.57;3.80;;;;;;;19.83;100.00;101377.75;2079678;28;20496;-62
2023/05/28 00:57:54;;;;;;;5.03;3.67;;;;;;;19.81;100.00;101387.94;2081747;28;20923;-62
2023/05/28 00:58:55;;;;;;;5.73;3.83;;;;;;;19.72;100.00;101388.78;2078880;28;20511;-62
2023/05/28 00:59:56;;;;;;;4.70;3.97;;;;;;;19.62;100.00;101389.28;2073793;28;20404;-62
2023/05/28 01:00:57;;;;;;;6.53;4.40;;;;;;;19.62;100.00;101392.88;2075075;28;20670;-61
2023/05/28 01:01:58;;;;;;;4.47;4.07;;;;;;;19.64;100.00;101398.00;2081908;28;20862;-62
2023/05/28 01:02:59;;;;;;;5.97;4.03;;;;;;;19.63;100.00;101394.44;2082717;28;20235;-62
2023/05/28 01:04:00;;;;;;;6.67;3.90;;;;;;;19.65;100.00;101391.16;2081926;28;20431;-62
2023/05/28 01:05:00;;;;;;;5.93;3.93;;;;;;;19.65;100.00;101397.53;2081965;28;20605;-62
2023/05/28 01:06:01;;;;;;;8.00;4.10;;;;;;;19.62;100.00;101392.88;2081915;28;20530;-62
2023/05/28 01:07:01;;;;;;;4.90;3.73;;;;;;;19.58;100.00;101392.25;2082036;28;20575;-62
2023/05/28 01:08:02;;;;;;;7.40;4.50;;;;;;;19.55;100.00;101395.25;2081939;28;20185;-62
2023/05/28 01:09:04;;;;;;;6.83;4.27;;;;;;;19.54;100.00;101393.69;2080553;28;20177;-62
2023/05/28 01:10:05;;;;;;;6.83;4.03;;;;;;;19.27;100.00;101357.25;2073605;28;20833;-62
2023/05/28 01:11:14;;;;;;;5.47;4.13;;;;;;;19.49;100.00;101397.16;2074015;28;20412;-62
2023/05/28 01:12:16;;;;;;;6.27;4.40;;;;;;;19.46;100.00;101392.47;2074186;28;20411;-63
2023/05/28 01:13:17;;;;;;;6.27;4.10;;;;;;;18.76;100.00;101287.03;2082172;28;20492;-62
2023/05/28 01:14:19;;;;;;;4.53;4.00;;;;;;;19.23;100.00;101362.25;2074387;28;20479;-62
2023/05/28 01:15:19;;;;;;;5.17;3.67;;;;;;;19.47;100.00;101402.47;2078870;28;20181;-62
2023/05/28 01:16:21;;;;;;;5.73;4.17;;;;;;;19.47;100.00;101388.41;2074098;28;20455;-62
2023/05/28 01:17:22;;;;;;;6.10;4.20;;;;;;;19.45;100.00;101390.94;2077841;28;20290;-62
2023/05/28 01:18:22;;;;;;;5.37;4.13;;;;;;;19.48;100.00;101393.56;2087562;28;20427;-62
2023/05/28 01:19:26;;;;;;;6.27;4.77;;;;;;;19.46;100.00;101386.84;2081771;28;20188;-61
2023/05/28 01:20:28;;;;;;;7.30;4.93;;;;;;;19.46;100.00;101390.47;2081530;28;20187;-62
2023/05/28 01:21:30;;;;;;;7.13;4.97;;;;;;;19.38;100.00;101383.59;2082069;28;20415;-62
2023/05/28 01:22:37;;;;;;;7.93;5.10;;;;;;;19.39;100.00;101393.59;2082242;28;20775;-63
2023/05/28 01:23:47;;;;;;;7.77;4.67;;;;;;;19.43;100.00;101385.78;2074329;28;20460;-62
2023/05/28 01:24:51;;;;;;;8.60;6.20;;;;;;;19.37;100.00;101376.44;2073632;28;20421;-62
2023/05/28 01:25:52;;;;;;;7.90;5.27;;;;;;;18.92;100.00;101294.28;2080450;28;20443;-62
2023/05/28 01:26:53;;;;;;;7.30;4.90;;;;;;;19.47;100.00;101377.94;2081990;28;20965;-62
2023/05/28 01:27:54;;;;;;;6.70;4.87;;;;;;;19.48;100.00;101376.69;2077429;28;20939;-63
2023/05/28 01:28:56;;;;;;;5.97;5.37;;;;;;;19.51;100.00;101369.34;2079343;28;20188;-62
2023/05/28 01:29:56;;;;;;;8.70;6.00;;;;;;;19.51;100.00;101369.34;2079220;28;20424;-63
2023/05/28 01:30:57;;;;;;;6.97;5.70;;;;;;;19.50;100.00;101364.97;2074708;28;20421;-62
2023/05/28 01:31:57;;;;;;;7.80;6.07;;;;;;;19.50;100.00;101362.94;2081636;28;20541;-62
2023/05/28 01:32:57;;;;;;;7.60;5.70;;;;;;;19.47;100.00;101374.34;2073977;28;20671;-61
2023/05/28 01:33:58;;;;;;;10.23;6.40;;;;;;;19.40;100.00;101358.59;2073501;28;20177;-63
2023/05/28 01:34:59;;;;;;;8.13;5.90;;;;;;;19.45;100.00;101371.25;2073481;28;20193;-62
2023/05/28 01:36:00;;;;;;;8.07;6.30;;;;;;;19.44;100.00;101367.66;2078412;28;20726;-62
2023/05/28 01:37:07;;;;;;;7.53;6.50;;;;;;;19.45;100.00;101368.44;2078064;28;20206;-62
2023/05/28 01:38:10;;;;;;;9.30;5.93;;;;;;;18.87;100.00;101270.44;2077046;28;20446;-62
2023/05/28 01:39:15;;;;;;;9.30;6.50;;;;;;;19.05;100.00;101298.47;2079141;28;20798;-62
2023/05/28 01:40:17;;;;;;;7.90;6.27;;;;;;;19.49;100.00;101361.38;2073492;28;20424;-62
2023/05/28 01:41:17;;;;;;;10.87;6.47;;;;;;;18.73;100.00;101248.66;2074392;28;20551;-62
2023/05/28 01:42:18;;;;;;;8.27;6.40;;;;;;;19.53;100.00;101364.81;2081947;28;20430;-62
2023/05/28 01:43:19;;;;;;;7.07;5.90;;;;;;;19.55;100.00;101373.53;2081994;28;20180;-62
2023/05/28 01:44:20;;;;;;;9.50;6.43;;;;;;;19.53;100.00;101362.00;2081948;28;20318;-63
2023/05/28 01:45:22;;;;;;;7.50;5.93;;;;;;;19.56;100.00;101363.06;2081472;28;20435;-62
2023/05/28 01:46:23;;;;;;;7.40;6.13;;;;;;;19.55;100.00;101362.28;2081541;28;20193;-62
2023/05/28 01:47:25;;;;;;;9.00;5.97;;;;;;;19.49;100.00;101346.56;2081649;28;20435;-62
2023/05/28 01:48:27;;;;;;;9.50;6.57;;;;;;;19.58;100.00;101366.97;2081791;28;20930;-62
2023/05/28 01:49:27;;;;;;;8.97;6.60;;;;;;;19.57;100.00;101364.63;2085624;28;20425;-63
2023/05/28 01:50:30;;;;;;;9.47;5.90;;;;;;;18.85;100.00;101256.13;2081362;28;20940;-62
2023/05/28 01:51:32;;;;;;;7.80;5.57;;;;;;;19.57;100.00;101365.41;2081992;28;20180;-62
2023/05/28 01:52:33;;;;;;;8.63;6.23;;;;;;;19.10;100.00;101292.22;2081957;28;20474;-62
2023/05/28 01:53:33;;;;;;;8.27;5.97;;;;;;;19.57;100.00;101364.63;2081612;28;20429;-62
2023/05/28 01:54:34;;;;;;;9.60;6.40;;;;;;;18.97;100.00;101276.81;2081418;28;20212;-62
2023/05/28 01:55:35;;;;;;;7.67;5.90;;;;;;;19.55;100.00;101370.72;2076846;28;20682;-63
2023/05/28 01:56:35;;;;;;;9.47;6.20;;;;;;;19.45;100.00;101357.94;2077244;28;20800;-62
2023/05/28 01:57:36;;;;;;;10.80;5.97;;;;;;;19.50;100.00;101367.78;2081500;28;20222;-63
2023/05/28 01:58:36;;;;;;;8.90;6.03;;;;;;;19.51;100.00;101364.50;2081723;28;20179;-62
2023/05/28 01:59:37;;;;;;;6.60;5.37;;;;;;;19.50;100.00;101362.94;2082000;28;20185;-62
2023/05/28 02:01:08;;;;;;;7.63;5.83;;;;;;;19.51;100.00;101363.72;2081119;28;20274;-62
2023/05/28 02:02:08;;;;;;;8.23;5.40;;;;;;;19.51;100.00;101367.31;2080088;28;20766;-62
2023/05/28 02:03:11;;;;;;;9.10;6.23;;;;;;;19.51;100.00;101363.72;2073479;28;20503;-62
2023/05/28 02:04:11;;;;;;;9.43;6.10;;;;;;;19.52;100.00;101368.88;2073593;28;20264;-62
2023/05/28 02:05:12;;;;;;;7.97;6.07;;;;;;;19.50;100.00;101365.75;2073269;28;20452;-62
2023/05/28 02:06:12;;;;;;;9.13;6.43;;;;;;;19.16;100.00;101317.63;2077013;28;20176;-62
2023/05/28 02:07:13;;;;;;;9.50;6.23;;;;;;;19.51;100.00;101360.91;2076367;28;20216;-62
2023/05/28 02:08:13;;;;;;;7.77;6.13;;;;;;;19.06;100.00;101293.63;2077549;28;20182;-62
2023/05/28 02:09:14;;;;;;;7.63;5.67;;;;;;;19.33;100.00;101339.28;2081620;28;20544;-62
2023/05/28 02:10:15;;;;;;;10.63;6.30;;;;;;;19.47;100.00;101369.53;2081436;28;20173;-62
2023/05/28 02:11:15;;;;;;;10.30;6.47;;;;;;;19.40;100.00;101363.47;2080672;28;20180;-62
2023/05/28 02:12:15;;;;;;;8.97;5.80;;;;;;;19.46;100.00;101373.59;2073694;28;20236;-62
2023/05/28 02:13:16;;;;;;;11.93;6.37;;;;;;;19.40;100.00;101369.09;2081162;28;20235;-62
2023/05/28 02:14:16;;;;;;;9.00;6.13;;;;;;;19.44;100.00;101380.94;2081481;28;20181;-63
2023/05/28 02:15:18;;;;;;;8.23;6.13;;;;;;;19.17;100.00;101330.41;2081001;28;20184;-62
2023/05/28 02:16:19;;;;;;;8.60;6.67;;;;;;;19.43;100.00;101373.72;2081588;28;20198;-63
2023/05/28 02:17:20;;;;;;;10.30;6.73;;;;;;;19.42;100.00;101383.44;2081301;28;20522;-62
2023/05/28 02:18:20;;;;;;;8.33;6.37;;;;;;;19.42;100.00;101372.19;2081718;28;20189;-62
2023/05/28 02:19:24;;;;;;;8.47;6.30;;;;;;;19.42;100.00;101375.78;2081449;28;20420;-62
2023/05/28 02:20:24;;;;;;;7.13;6.03;;;;;;;18.65;100.00;101261.50;2081036;28;20196;-62
2023/05/28 02:21:25;;;;;;;9.07;6.60;;;;;;;19.39;100.00;101368.28;2081644;28;20455;-62
2023/05/28 02:22:25;;;;;;;10.53;6.50;;;;;;;19.36;100.00;101374.09;2074144;28;20609;-62
2023/05/28 02:23:25;;;;;;;9.17;6.40;;;;;;;19.36;100.00;101376.91;2079296;28;20208;-62
2023/05/28 02:24:26;;;;;;;11.07;7.07;;;;;;;19.32;100.00;101379.88;2076036;28;20273;-62
2023/05/28 02:25:26;;;;;;;9.47;6.60;;;;;;;19.27;100.00;101377.72;2073183;28;20269;-62
2023/05/28 02:26:27;;;;;;;11.47;6.43;;;;;;;19.31;100.00;101378.34;2073476;28;20197;-62
2023/05/28 02:27:27;;;;;;;7.77;6.13;;;;;;;19.30;100.00;101390.03;2073234;28;20177;-62
2023/05/28 02:28:28;;;;;;;9.07;6.13;;;;;;;19.24;100.00;101387.09;2073805;28;20177;-62
2023/05/28 02:29:28;;;;;;;8.07;5.77;;;;;;;19.19;100.00;101386.94;2081507;28;20180;-62
2023/05/28 02:30:29;;;;;;;8.07;6.03;;;;;;;19.19;100.00;101386.94;2081236;28;20818;-62
2023/05/28 02:31:29;;;;;;;7.87;5.80;;;;;;;19.20;100.00;101391.28;2074944;28;20194;-62
2023/05/28 02:32:30;;;;;;;7.43;5.93;;;;;;;19.16;100.00;101369.00;2073109;28;20578;-62
2023/05/28 02:33:32;;;;;;;9.33;6.10;;;;;;;19.15;100.00;101384.28;2073089;28;20196;-62
2023/05/28 02:34:33;;;;;;;7.80;5.90;;;;;;;19.15;100.00;101387.09;2073053;28;20244;-62
2023/05/28 02:35:34;;;;;;;8.60;5.80;;;;;;;19.19;100.00;101376.44;2075259;28;20421;-63
2023/05/28 02:36:35;;;;;;;8.73;5.90;;;;;;;19.24;100.00;101375.09;2081333;28;20415;-62
2023/05/28 02:37:36;;;;;;;9.07;6.73;;;;;;;19.25;100.00;101373.81;2081429;28;20207;-63
2023/05/28 02:38:36;;;;;;;8.67;6.63;;;;;;;19.23;100.00;101373.50;2073574;28;20428;-62
2023/05/28 02:39:36;;;;;;;8.93;6.43;;;;;;;19.25;100.00;101376.63;2079724;28;20189;-63
2023/05/28 02:40:37;;;;;;;9.33;6.07;;;;;;;19.26;100.00;101376.16;2080940;28;20263;-62
2023/05/28 02:41:37;;;;;;;7.60;6.23;;;;;;;19.26;100.00;101373.34;2076828;28;20232;-63
2023/05/28 02:42:38;;;;;;;10.63;6.27;;;;;;;19.23;100.00;101381.94;2076476;28;20187;-62
2023/05/28 02:43:38;;;;;;;8.13;6.40;;;;;;;19.23;100.00;101370.69;2079186;28;20173;-62
2023/05/28 02:44:38;;;;;;;8.57;6.17;;;;;;;19.22;100.00;101372.75;2072951;28;20664;-62
2023/05/28 02:45:39;;;;;;;7.50;6.00;;;;;;;19.21;100.00;101373.97;2072495;28;20194;-62
2023/05/28 02:46:39;;;;;;;8.53;5.90;;;;;;;19.06;100.00;101363.84;2080058;28;20190;-62
2023/05/28 02:47:40;;;;;;;9.53;5.67;;;;;;;19.14;100.00;101377.09;2074996;28;20541;-62
2023/05/28 02:48:40;;;;;;;9.77;6.27;;;;;;;19.14;100.00;101374.28;2078532;28;20185;-62
2023/05/28 02:49:41;;;;;;;10.07;6.10;;;;;;;19.13;100.00;101371.97;2081227;28;20691;-62
2023/05/28 02:50:41;;;;;;;10.87;6.50;;;;;;;19.12;100.00;101376.00;2078038;28;20693;-62
2023/05/28 02:51:41;;;;;;;9.00;6.83;;;;;;;19.13;100.00;101375.53;2073006;28;20693;-61
2023/05/28 02:52:42;;;;;;;9.07;6.77;;;;;;;19.16;100.00;101373.81;2073696;28;20554;-62
2023/05/28 02:53:42;;;;;;;7.80;6.47;;;;;;;19.12;100.00;101379.59;2080523;28;20690;-62
2023/05/28 02:54:42;;;;;;;9.73;6.93;;;;;;;18.97;100.00;101364.66;2080298;28;20782;-61
2023/05/28 02:55:43;;;;;;;10.17;6.63;;;;;;;18.97;100.00;101361.84;2079626;28;20221;-62
2023/05/28 02:56:43;;;;;;;9.80;7.63;;;;;;;19.02;100.00;101374.47;2081444;28;20195;-61
2023/05/28 02:57:44;;;;;;;8.43;6.47;;;;;;;19.02;100.00;101380.09;2076412;28;20516;-61
2023/05/28 02:58:45;;;;;;;9.40;6.53;;;;;;;19.06;100.00;101381.50;2073056;28;20208;-62
2023/05/28 02:59:46;;;;;;;8.80;6.50;;;;;;;19.09;100.00;101386.16;2074857;28;20210;-63
2023/05/28 03:00:46;;;;;;;7.77;6.80;;;;;;;19.08;100.00;101381.78;2080747;28;20419;-63
2023/05/28 03:01:46;;;;;;;8.87;6.60;;;;;;;19.02;100.00;101377.28;2081289;28;20172;-63
2023/05/28 03:02:47;;;;;;;7.23;6.50;;;;;;;19.00;100.00;101371.38;2073448;28;20267;-62
2023/05/28 03:03:47;;;;;;;8.53;6.33;;;;;;;19.07;100.00;101380.25;2079404;28;20185;-62
2023/05/28 03:04:48;;;;;;;7.10;6.40;;;;;;;19.11;100.00;101382.88;2075501;28;20182;-62
2023/05/28 03:05:51;;;;;;;8.80;6.50;;;;;;;19.14;100.00;101384.75;2073178;28;20709;-63
2023/05/28 03:06:52;;;;;;;13.23;7.30;;;;;;;18.80;100.00;101335.38;2077828;28;20565;-63
2023/05/28 03:07:52;;;;;;;9.77;6.50;;;;;;;19.16;100.00;101383.03;2072823;28;20432;-62
2023/05/28 03:08:53;;;;;;;10.80;6.87;;;;;;;19.16;100.00;101380.22;2074286;28;20253;-62
2023/05/28 03:09:53;;;;;;;7.53;6.30;;;;;;;19.15;100.00;101384.28;2080885;28;20177;-62
2023/05/28 03:10:53;;;;;;;9.57;6.97;;;;;;;19.08;100.00;101373.38;2072816;28;20174;-62
2023/05/28 03:11:54;;;;;;;10.13;6.90;;;;;;;18.99;100.00;101358.59;2072811;28;20272;-62
2023/05/28 03:12:54;;;;;;;9.60;7.03;;;;;;;19.19;100.00;101386.94;2078998;28;20189;-62
2023/05/28 03:13:55;;;;;;;11.17;6.70;;;;;;;19.18;100.00;101386.13;2076010;28;20249;-62
2023/05/28 03:14:55;;;;;;;8.97;6.50;;;;;;;19.12;100.00;101379.59;2072625;28;20573;-62
2023/05/28 03:15:55;;;;;;;9.50;6.90;;;;;;;19.17;100.00;101387.41;2072801;28;20300;-62
2023/05/28 03:16:56;;;;;;;8.67;6.97;;;;;;;19.17;100.00;101390.22;2073563;28;20174;-62
2023/05/28 03:17:56;;;;;;;8.40;7.20;;;;;;;18.33;100.00;101256.56;2080180;28;20706;-63
2023/05/28 03:18:57;;;;;;;9.73;6.90;;;;;;;19.17;100.00;101384.59;2081395;28;20169;-63
2023/05/28 03:19:57;;;;;;;7.67;6.70;;;;;;;18.83;100.00;101325.25;2073692;28;20247;-62
2023/05/28 03:20:58;;;;;;;10.87;7.93;;;;;;;19.20;100.00;101385.69;2078555;28;20188;-61
2023/05/28 03:21:58;;;;;;;15.40;6.90;;;;;;;19.18;100.00;101388.94;2080636;28;20223;-64
2023/05/28 03:22:58;;;;;;;11.27;6.83;;;;;;;19.17;100.00;101389.41;2077256;28;20186;-63
2023/05/28 03:23:59;;;;;;;9.83;7.67;;;;;;;19.15;100.00;101400.38;2072680;28;20196;-62
2023/05/28 03:24:59;;;;;;;10.53;7.70;;;;;;;19.12;100.00;101399.28;2074089;28;20530;-63
2023/05/28 03:26:00;;;;;;;12.17;7.77;;;;;;;19.13;100.00;101405.69;2080258;28;20709;-62
2023/05/28 03:27:01;;;;;;;11.97;7.93;;;;;;;19.09;100.00;101405.81;2073145;28;20176;-63
2023/05/28 03:28:01;;;;;;;10.10;7.47;;;;;;;18.99;100.00;101401.47;2080250;28;20204;-62
2023/05/28 03:29:01;;;;;;;9.27;7.67;;;;;;;18.95;100.00;101395.28;2074665;28;20222;-63
2023/05/28 03:30:03;;;;;;;9.93;7.60;;;;;;;19.02;100.00;101399.75;2077838;28;20611;-62
2023/05/28 03:31:04;;;;;;;12.37;7.60;;;;;;;19.01;100.00;101396.19;2080995;28;20188;-63
2023/05/28 03:32:05;;;;;;;9.20;7.57;;;;;;;18.43;100.00;101302.22;2080723;28;20448;-63
2023/05/28 03:33:06;;;;;;;12.67;8.10;;;;;;;18.29;100.00;101281.94;2079325;28;20451;-63
2023/05/28 03:34:06;;;;;;;11.07;7.23;;;;;;;19.14;100.00;101405.19;2072532;28;20185;-63
2023/05/28 03:35:07;;;;;;;8.40;7.37;;;;;;;19.19;100.00;101409.41;2072549;28;20184;-62
2023/05/28 03:36:08;;;;;;;10.63;7.50;;;;;;;19.21;100.00;101412.50;2080443;28;20574;-62
2023/05/28 03:37:08;;;;;;;8.67;7.40;;;;;;;19.20;100.00;101416.59;2081019;28;20478;-63
2023/05/28 03:38:09;;;;;;;10.17;7.40;;;;;;;18.21;100.00;101260.28;2080699;28;20286;-62
2023/05/28 03:39:10;;;;;;;8.33;7.30;;;;;;;19.20;100.00;101416.59;2080882;28;20203;-62
2023/05/28 03:40:11;;;;;;;11.13;7.83;;;;;;;19.25;100.00;101410.34;2080320;28;20626;-63
2023/05/28 03:41:12;;;;;;;10.90;7.30;;;;;;;19.29;100.00;101408.16;2078478;28;20539;-62
2023/05/28 03:42:12;;;;;;;11.00;7.47;;;;;;;19.27;100.00;101403.00;2073662;28;20174;-62
2023/05/28 03:43:12;;;;;;;9.23;7.37;;;;;;;19.33;100.00;101408.75;2080904;28;20173;-63
2023/05/28 03:44:13;;;;;;;10.57;7.13;;;;;;;19.36;100.00;101410.63;2080979;28;20191;-62
2023/05/28 03:45:13;;;;;;;11.50;7.43;;;;;;;19.39;100.00;101406.88;2073584;28;20185;-63
2023/05/28 03:46:14;;;;;;;10.27;6.63;;;;;;;19.40;100.00;101408.44;2078655;28;20189;-62
2023/05/28 03:47:14;;;;;;;10.87;6.80;;;;;;;19.42;100.00;101403.09;2076202;28;20189;-61
2023/05/28 03:48:15;;;;;;;10.97;7.43;;;;;;;19.40;100.00;101400.75;2072760;28;20667;-62
2023/05/28 03:49:15;;;;;;;10.23;7.23;;;;;;;19.43;100.00;101404.66;2075089;28;20260;-62
2023/05/28 03:50:16;;;;;;;11.03;7.30;;;;;;;19.40;100.00;101400.75;2079343;28;20215;-62
2023/05/28 03:51:16;;;;;;;11.43;8.03;;;;;;;19.38;100.00;101403.28;2072697;28;20185;-62
2023/05/28 03:52:16;;;;;;;12.70;8.30;;;;;;;19.33;100.00;101389.88;2080980;28;20251;-62
2023/05/28 03:53:17;;;;;;;10.47;7.90;;;;;;;19.40;100.00;101406.38;2073978;28;20190;-61
2023/05/28 03:54:17;;;;;;;10.27;7.87;;;;;;;19.37;100.00;101398.91;2078425;28;20184;-62
2023/05/28 03:55:18;;;;;;;10.00;7.80;;;;;;;19.37;100.00;101404.53;2075666;28;20193;-62
2023/05/28 03:56:19;;;;;;;11.43;7.73;;;;;;;19.33;100.00;101415.16;2076191;28;20181;-62
2023/05/28 03:57:19;;;;;;;9.87;7.53;;;;;;;19.30;100.00;101401.28;2080629;28;20618;-62
2023/05/28 03:58:20;;;;;;;12.47;7.90;;;;;;;19.33;100.00;101400.31;2079319;28;20435;-62
2023/05/28 03:59:21;;;;;;;9.30;7.93;;;;;;;19.37;100.00;101404.53;2072841;28;20173;-62
2023/05/28 04:00:21;;;;;;;8.97;8.03;;;;;;;19.37;100.00;101403.75;2080415;28;20568;-62
2023/05/28 04:01:22;;;;;;;10.27;8.00;;;;;;;19.37;100.00;101403.75;2080883;28;20246;-62
2023/05/28 04:02:23;;;;;;;10.80;8.10;;;;;;;19.36;100.00;101405.78;2080929;28;20192;-62
2023/05/28 04:03:23;;;;;;;9.90;7.87;;;;;;;19.29;100.00;101392.06;2080532;28;20188;-63
2023/05/28 04:04:23;;;;;;;10.90;8.10;;;;;;;19.22;100.00;101400.84;2080522;28;20458;-62
2023/05/28 04:05:24;;;;;;;9.13;8.20;;;;;;;19.14;100.00;101399.56;2080450;28;20185;-62
2023/05/28 04:06:24;;;;;;;12.40;9.47;;;;;;;19.14;100.00;101405.19;2083162;28;20185;-62
2023/05/28 04:07:25;;;;;;;10.87;7.77;;;;;;;19.17;100.00;101404.25;2080190;28;20651;-62
2023/05/28 04:08:25;;;;;;;8.43;6.97;;;;;;;19.21;100.00;101407.69;2081040;28;20180;-62
2023/05/28 04:09:27;;;;;;;10.33;7.70;;;;;;;19.27;100.00;101411.44;2080672;28;20334;-62
2023/05/28 04:10:27;;;;;;;9.07;7.17;;;;;;;19.31;100.00;101406.44;2080258;28;20267;-62
2023/05/28 04:11:29;;;;;;;10.47;7.47;;;;;;;19.35;100.00;101415.47;2080313;28;20821;-62
2023/05/28 04:12:30;;;;;;;9.57;7.93;;;;;;;19.39;100.00;101412.50;2080783;28;20263;-62
2023/05/28 04:13:30;;;;;;;14.77;7.90;;;;;;;19.43;100.00;101408.25;2080513;28;20450;-63
2023/05/28 04:14:31;;;;;;;10.73;7.50;;;;;;;19.49;100.00;101411.97;2080343;28;20176;-62
2023/05/28 04:15:31;;;;;;;12.30;8.50;;;;;;;19.52;100.00;101410.25;2080906;28;20192;-62
2023/05/28 04:16:31;;;;;;;12.13;8.30;;;;;;;19.49;100.00;101403.53;2080895;28;20260;-63
2023/05/28 04:17:32;;;;;;;14.27;8.80;;;;;;;19.50;100.00;101404.34;2072363;28;20202;-63
2023/05/28 04:18:33;;;;;;;11.03;8.00;;;;;;;19.52;100.00;101408.22;2072605;28;20236;-62
2023/05/28 04:19:33;;;;;;;15.47;7.93;;;;;;;19.54;100.00;101407.75;2072371;28;20197;-62
2023/05/28 04:20:35;;;;;;;10.83;8.90;;;;;;;19.54;100.00;101404.94;2076763;28;20736;-62
2023/05/28 04:21:36;;;;;;;12.17;9.03;;;;;;;19.63;100.00;101405.69;2080570;28;20246;-62
2023/05/28 04:22:37;;;;;;;11.90;8.70;;;;;;;19.67;100.00;101405.50;2078399;28;20936;-61
2023/05/28 04:23:37;;;;;;;11.27;9.10;;;;;;;19.72;100.00;101405.63;2072566;28;20252;-61
2023/05/28 04:24:37;;;;;;;12.03;9.43;;;;;;;19.76;100.00;101400.59;2072558;28;20216;-62
2023/05/28 04:25:38;;;;;;;9.80;8.60;;;;;;;19.83;100.00;101407.91;2080160;28;20247;-62
2023/05/28 04:26:38;;;;;;;12.33;9.00;;;;;;;19.84;100.00;101401.03;2073742;28;20651;-63
2023/05/28 04:27:40;;;;;;;12.10;8.77;;;;;;;19.79;100.00;101385.59;2072538;28;20208;-63
2023/05/28 04:28:41;;;;;;;13.03;9.40;;;;;;;19.84;100.00;101395.41;2072560;28;20616;-62
2023/05/28 04:29:42;;;;;;;10.77;9.13;;;;;;;19.83;100.00;101391.03;2072312;28;20452;-62
2023/05/28 04:30:42;;;;;;;11.30;9.17;;;;;;;19.89;100.00;101395.53;2074797;28;20261;-62
2023/05/28 04:31:43;;;;;;;12.13;8.40;;;;;;;19.45;100.00;101327.03;2086621;28;20218;-63
2023/05/28 04:32:44;;;;;;;13.67;9.37;;;;;;;19.97;100.00;101407.22;2080020;28;20179;-62
2023/05/28 04:33:47;;;;;;;13.07;9.03;;;;;;;19.87;100.00;101380.38;2072599;28;20416;-62
2023/05/28 04:34:47;;;;;;;12.07;9.03;;;;;;;20.04;100.00;101406.84;2080099;28;20247;-63
2023/05/28 04:35:48;;;;;;;14.30;9.23;;;;;;;19.79;100.00;101359.50;2073765;28;20436;-62
2023/05/28 04:36:48;;;;;;;12.07;9.30;;;;;;;20.11;100.00;101412.94;2072689;28;20284;-63
2023/05/28 04:37:50;;;;;;;13.70;9.07;;;;;;;20.11;100.00;101409.34;2072310;28;20248;-62
2023/05/28 04:38:52;;;;;;;12.47;9.50;;;;;;;19.74;100.00;101346.09;2076012;28;20196;-62